sensor_id;sensor_type;location;lat;lon;timestamp;temperature;humidity
9043;DHT22;4556;49.150;8.808;2022-08-07T00:02:10;17.40;92.60
9043;DHT22;4556;49.150;8.808;2022-08-07T00:04:37;17.00;92.90
9043;DHT22;4556;49.150;8.808;2022-08-07T00:07:05;16.80;92.90
9043;DHT22;4556;49.150;8.808;2022-08-07T00:09:32;16.50;93.30
9043;DHT22;4556;49.150;8.808;2022-08-07T00:11:59;16.50;93.60
9043;DHT22;4556;49.150;8.808;2022-08-07T00:14:27;16.40;93.70
9043;DHT22;4556;49.150;8.808;2022-08-07T00:16:55;16.20;93.40
9043;DHT22;4556;49.150;8.808;2022-08-07T00:19:24;16.20;93.20
9043;DHT22;4556;49.150;8.808;2022-08-07T00:21:53;14.70;92.40
9043;DHT22;4556;49.150;8.808;2022-08-07T00:24:20;16.00;93.10
9043;DHT22;4556;49.150;8.808;2022-08-07T00:26:47;15.90;93.40
9043;DHT22;4556;49.150;8.808;2022-08-07T00:29:15;15.90;93.70
9043;DHT22;4556;49.150;8.808;2022-08-07T00:31:43;14.30;93.50
9043;DHT22;4556;49.150;8.808;2022-08-07T00:34:11;15.70;93.30
9043;DHT22;4556;49.150;8.808;2022-08-07T00:36:39;15.80;93.60
9043;DHT22;4556;49.150;8.808;2022-08-07T00:39:06;15.80;93.40
9043;DHT22;4556;49.150;8.808;2022-08-07T00:41:33;15.90;93.80
9043;DHT22;4556;49.150;8.808;2022-08-07T00:44:01;15.80;93.60
9043;DHT22;4556;49.150;8.808;2022-08-07T00:46:29;15.80;94.70
9043;DHT22;4556;49.150;8.808;2022-08-07T00:48:56;15.70;93.60
9043;DHT22;4556;49.150;8.808;2022-08-07T00:51:26;15.60;93.90
9043;DHT22;4556;49.150;8.808;2022-08-07T00:53:55;15.80;94.50
9043;DHT22;4556;49.150;8.808;2022-08-07T00:56:22;15.70;95.10
9043;DHT22;4556;49.150;8.808;2022-08-07T00:58:49;16.20;94.50
9043;DHT22;4556;49.150;8.808;2022-08-07T01:01:17;15.30;94.30
9043;DHT22;4556;49.150;8.808;2022-08-07T01:03:47;15.20;94.20
9043;DHT22;4556;49.150;8.808;2022-08-07T01:06:16;15.20;94.60
9043;DHT22;4556;49.150;8.808;2022-08-07T01:08:45;15.20;94.80
9043;DHT22;4556;49.150;8.808;2022-08-07T01:11:14;15.10;94.70
9043;DHT22;4556;49.150;8.808;2022-08-07T01:13:42;15.20;95.50
9043;DHT22;4556;49.150;8.808;2022-08-07T01:16:10;15.20;94.30
9043;DHT22;4556;49.150;8.808;2022-08-07T01:18:37;15.20;94.50
9043;DHT22;4556;49.150;8.808;2022-08-07T01:21:10;15.10;95.20
9043;DHT22;4556;49.150;8.808;2022-08-07T01:23:40;15.00;94.70
9043;DHT22;4556;49.150;8.808;2022-08-07T01:26:09;15.00;94.80
9043;DHT22;4556;49.150;8.808;2022-08-07T01:28:37;14.90;94.90
9043;DHT22;4556;49.150;8.808;2022-08-07T01:31:06;14.90;94.90
9043;DHT22;4556;49.150;8.808;2022-08-07T01:33:34;14.80;94.90
9043;DHT22;4556;49.150;8.808;2022-08-07T01:36:03;14.90;95.00
9043;DHT22;4556;49.150;8.808;2022-08-07T01:38:35;14.90;95.30
9043;DHT22;4556;49.150;8.808;2022-08-07T01:41:04;15.00;94.80
9043;DHT22;4556;49.150;8.808;2022-08-07T01:43:32;15.10;94.70
9043;DHT22;4556;49.150;8.808;2022-08-07T01:46:01;15.10;94.80
9043;DHT22;4556;49.150;8.808;2022-08-07T01:48:32;15.10;94.80
9043;DHT22;4556;49.150;8.808;2022-08-07T01:51:03;14.90;95.30
9043;DHT22;4556;49.150;8.808;2022-08-07T01:53:35;15.00;95.60
9043;DHT22;4556;49.150;8.808;2022-08-07T01:56:08;15.00;95.20
9043;DHT22;4556;49.150;8.808;2022-08-07T01:58:40;14.90;95.80
9043;DHT22;4556;49.150;8.808;2022-08-07T02:01:11;15.00;95.60
9043;DHT22;4556;49.150;8.808;2022-08-07T02:03:42;15.10;95.70
9043;DHT22;4556;49.150;8.808;2022-08-07T02:06:14;15.00;95.40
9043;DHT22;4556;49.150;8.808;2022-08-07T02:08:45;15.10;96.00
9043;DHT22;4556;49.150;8.808;2022-08-07T02:11:13;16.50;96.80
9043;DHT22;4556;49.150;8.808;2022-08-07T02:13:42;15.00;95.70
9043;DHT22;4556;49.150;8.808;2022-08-07T02:16:10;15.00;95.40
9043;DHT22;4556;49.150;8.808;2022-08-07T02:18:41;15.30;95.90
9043;DHT22;4556;49.150;8.808;2022-08-07T02:21:09;15.30;96.00
9043;DHT22;4556;49.150;8.808;2022-08-07T02:23:38;15.00;95.80
9043;DHT22;4556;49.150;8.808;2022-08-07T02:26:09;15.20;96.40
9043;DHT22;4556;49.150;8.808;2022-08-07T02:28:37;15.00;95.80
9043;DHT22;4556;49.150;8.808;2022-08-07T02:31:06;14.20;95.80
9043;DHT22;4556;49.150;8.808;2022-08-07T02:33:35;17.70;97.60
9043;DHT22;4556;49.150;8.808;2022-08-07T02:36:04;14.90;95.70
9043;DHT22;4556;49.150;8.808;2022-08-07T02:38:35;14.90;96.70
9043;DHT22;4556;49.150;8.808;2022-08-07T02:41:04;15.80;96.80
9043;DHT22;4556;49.150;8.808;2022-08-07T02:43:34;14.70;96.70
9043;DHT22;4556;49.150;8.808;2022-08-07T02:46:03;14.90;96.70
9043;DHT22;4556;49.150;8.808;2022-08-07T02:48:31;15.10;97.00
9043;DHT22;4556;49.150;8.808;2022-08-07T02:51:04;14.90;96.60
9043;DHT22;4556;49.150;8.808;2022-08-07T02:53:37;14.50;97.10
9043;DHT22;4556;49.150;8.808;2022-08-07T02:56:07;13.90;96.50
9043;DHT22;4556;49.150;8.808;2022-08-07T02:58:41;14.60;96.90
9043;DHT22;4556;49.150;8.808;2022-08-07T03:01:09;14.70;96.90
9043;DHT22;4556;49.150;8.808;2022-08-07T03:03:38;14.70;96.40
9043;DHT22;4556;49.150;8.808;2022-08-07T03:06:06;14.70;96.60
9043;DHT22;4556;49.150;8.808;2022-08-07T03:08:33;14.80;96.60
9043;DHT22;4556;49.150;8.808;2022-08-07T03:11:01;14.70;96.50
9043;DHT22;4556;49.150;8.808;2022-08-07T03:13:29;14.70;96.90
9043;DHT22;4556;49.150;8.808;2022-08-07T03:15:58;13.80;95.90
9043;DHT22;4556;49.150;8.808;2022-08-07T03:18:26;12.20;95.10
9043;DHT22;4556;49.150;8.808;2022-08-07T03:20:55;14.60;96.10
9043;DHT22;4556;49.150;8.808;2022-08-07T03:23:24;14.60;96.20
9043;DHT22;4556;49.150;8.808;2022-08-07T03:25:54;14.80;96.70
9043;DHT22;4556;49.150;8.808;2022-08-07T03:28:23;14.50;96.90
9043;DHT22;4556;49.150;8.808;2022-08-07T03:30:51;14.60;97.00
9043;DHT22;4556;49.150;8.808;2022-08-07T03:33:41;14.40;96.70
9043;DHT22;4556;49.150;8.808;2022-08-07T03:36:10;13.90;96.50
9043;DHT22;4556;49.150;8.808;2022-08-07T03:38:40;14.40;97.10
9043;DHT22;4556;49.150;8.808;2022-08-07T03:41:08;14.20;97.20
9043;DHT22;4556;49.150;8.808;2022-08-07T03:43:36;14.20;96.90
9043;DHT22;4556;49.150;8.808;2022-08-07T03:46:05;14.00;97.10
9043;DHT22;4556;49.150;8.808;2022-08-07T03:48:33;14.10;98.10
9043;DHT22;4556;49.150;8.808;2022-08-07T03:51:03;16.60;99.10
9043;DHT22;4556;49.150;8.808;2022-08-07T03:53:31;14.00;98.20
9043;DHT22;4556;49.150;8.808;2022-08-07T03:55:59;13.90;97.70
9043;DHT22;4556;49.150;8.808;2022-08-07T03:58:27;13.80;97.50
9043;DHT22;4556;49.150;8.808;2022-08-07T04:00:56;13.80;97.70
9043;DHT22;4556;49.150;8.808;2022-08-07T04:03:23;13.70;98.00
9043;DHT22;4556;49.150;8.808;2022-08-07T04:05:50;13.80;98.30
9043;DHT22;4556;49.150;8.808;2022-08-07T04:08:19;13.50;99.10
9043;DHT22;4556;49.150;8.808;2022-08-07T04:10:47;13.80;98.60
9043;DHT22;4556;49.150;8.808;2022-08-07T04:13:15;15.70;99.30
9043;DHT22;4556;49.150;8.808;2022-08-07T04:15:43;14.10;98.40
9043;DHT22;4556;49.150;8.808;2022-08-07T04:18:12;14.10;98.40
9043;DHT22;4556;49.150;8.808;2022-08-07T04:20:39;14.10;98.60
9043;DHT22;4556;49.150;8.808;2022-08-07T04:23:07;14.00;97.80
9043;DHT22;4556;49.150;8.808;2022-08-07T04:25:37;14.20;98.00
9043;DHT22;4556;49.150;8.808;2022-08-07T04:28:07;14.30;97.00
9043;DHT22;4556;49.150;8.808;2022-08-07T04:30:34;14.20;97.70
9043;DHT22;4556;49.150;8.808;2022-08-07T04:33:05;14.30;97.40
9043;DHT22;4556;49.150;8.808;2022-08-07T04:35:33;14.30;98.20
9043;DHT22;4556;49.150;8.808;2022-08-07T04:38:04;14.40;97.00
9043;DHT22;4556;49.150;8.808;2022-08-07T04:40:32;14.70;97.60
9043;DHT22;4556;49.150;8.808;2022-08-07T04:43:00;14.40;99.00
9043;DHT22;4556;49.150;8.808;2022-08-07T04:45:35;14.50;98.40
9043;DHT22;4556;49.150;8.808;2022-08-07T04:48:07;14.40;97.70
9043;DHT22;4556;49.150;8.808;2022-08-07T04:50:40;14.40;98.60
9043;DHT22;4556;49.150;8.808;2022-08-07T04:53:21;14.50;98.40
9043;DHT22;4556;49.150;8.808;2022-08-07T04:55:52;14.50;99.00
9043;DHT22;4556;49.150;8.808;2022-08-07T04:58:29;14.60;98.50
9043;DHT22;4556;49.150;8.808;2022-08-07T05:00:59;14.70;98.00
9043;DHT22;4556;49.150;8.808;2022-08-07T05:03:33;14.70;97.90
9043;DHT22;4556;49.150;8.808;2022-08-07T05:06:08;14.70;98.00
9043;DHT22;4556;49.150;8.808;2022-08-07T05:08:43;14.90;98.50
9043;DHT22;4556;49.150;8.808;2022-08-07T05:11:20;15.10;98.50
9043;DHT22;4556;49.150;8.808;2022-08-07T05:13:53;15.10;97.90
9043;DHT22;4556;49.150;8.808;2022-08-07T05:16:22;15.10;97.70
9043;DHT22;4556;49.150;8.808;2022-08-07T05:18:54;15.50;98.50
9043;DHT22;4556;49.150;8.808;2022-08-07T05:21:26;15.60;98.10
9043;DHT22;4556;49.150;8.808;2022-08-07T05:23:57;17.70;98.80
9043;DHT22;4556;49.150;8.808;2022-08-07T05:26:27;15.40;97.60
9043;DHT22;4556;49.150;8.808;2022-08-07T05:28:59;15.60;98.50
9043;DHT22;4556;49.150;8.808;2022-08-07T05:31:29;16.00;98.30
9043;DHT22;4556;49.150;8.808;2022-08-07T05:33:58;15.70;97.00
9043;DHT22;4556;49.150;8.808;2022-08-07T05:36:27;15.30;97.50
9043;DHT22;4556;49.150;8.808;2022-08-07T05:38:56;15.90;97.40
9043;DHT22;4556;49.150;8.808;2022-08-07T05:41:24;16.10;97.70
9043;DHT22;4556;49.150;8.808;2022-08-07T05:43:53;18.40;99.00
9043;DHT22;4556;49.150;8.808;2022-08-07T05:46:24;16.20;97.00
9043;DHT22;4556;49.150;8.808;2022-08-07T05:48:53;14.70;96.90
9043;DHT22;4556;49.150;8.808;2022-08-07T05:51:20;15.70;97.50
9043;DHT22;4556;49.150;8.808;2022-08-07T05:53:49;16.50;97.20
9043;DHT22;4556;49.150;8.808;2022-08-07T05:56:18;16.30;97.40
9043;DHT22;4556;49.150;8.808;2022-08-07T05:58:47;16.50;97.60
9043;DHT22;4556;49.150;8.808;2022-08-07T06:01:16;16.60;97.70
9043;DHT22;4556;49.150;8.808;2022-08-07T06:03:48;14.20;96.50
9043;DHT22;4556;49.150;8.808;2022-08-07T06:06:16;17.20;97.10
9043;DHT22;4556;49.150;8.808;2022-08-07T06:08:44;16.70;97.30
9043;DHT22;4556;49.150;8.808;2022-08-07T06:11:13;16.90;97.20
9043;DHT22;4556;49.150;8.808;2022-08-07T06:13:40;17.50;97.40
9043;DHT22;4556;49.150;8.808;2022-08-07T06:16:08;17.20;96.80
9043;DHT22;4556;49.150;8.808;2022-08-07T06:18:36;17.50;97.60
9043;DHT22;4556;49.150;8.808;2022-08-07T06:21:07;17.50;96.70
9043;DHT22;4556;49.150;8.808;2022-08-07T06:23:34;17.70;98.00
9043;DHT22;4556;49.150;8.808;2022-08-07T06:26:01;17.90;97.40
9043;DHT22;4556;49.150;8.808;2022-08-07T06:28:29;18.10;97.30
9043;DHT22;4556;49.150;8.808;2022-08-07T06:30:56;18.70;96.70
9043;DHT22;4556;49.150;8.808;2022-08-07T06:33:24;18.30;96.20
9043;DHT22;4556;49.150;8.808;2022-08-07T06:35:51;18.90;96.40
9043;DHT22;4556;49.150;8.808;2022-08-07T06:38:20;18.80;98.10
9043;DHT22;4556;49.150;8.808;2022-08-07T06:40:50;18.80;97.60
9043;DHT22;4556;49.150;8.808;2022-08-07T06:43:19;18.70;96.90
9043;DHT22;4556;49.150;8.808;2022-08-07T06:45:47;19.10;96.50
9043;DHT22;4556;49.150;8.808;2022-08-07T06:48:15;19.00;96.30
9043;DHT22;4556;49.150;8.808;2022-08-07T06:50:42;19.10;96.30
9043;DHT22;4556;49.150;8.808;2022-08-07T06:53:11;20.00;97.20
9043;DHT22;4556;49.150;8.808;2022-08-07T06:55:41;19.30;97.00
9043;DHT22;4556;49.150;8.808;2022-08-07T06:58:13;19.50;96.60
9043;DHT22;4556;49.150;8.808;2022-08-07T07:00:42;19.70;96.70
9043;DHT22;4556;49.150;8.808;2022-08-07T07:03:11;19.60;97.10
9043;DHT22;4556;49.150;8.808;2022-08-07T07:05:39;19.50;96.50
9043;DHT22;4556;49.150;8.808;2022-08-07T07:08:06;19.70;97.10
9043;DHT22;4556;49.150;8.808;2022-08-07T07:10:37;19.80;96.60
9043;DHT22;4556;49.150;8.808;2022-08-07T07:13:08;20.00;97.20
9043;DHT22;4556;49.150;8.808;2022-08-07T07:15:41;20.20;96.70
9043;DHT22;4556;49.150;8.808;2022-08-07T07:18:17;20.50;98.00
9043;DHT22;4556;49.150;8.808;2022-08-07T07:20:50;20.60;97.60
9043;DHT22;4556;49.150;8.808;2022-08-07T07:23:19;20.50;96.80
9043;DHT22;4556;49.150;8.808;2022-08-07T07:25:49;20.50;97.80
9043;DHT22;4556;49.150;8.808;2022-08-07T07:28:21;20.50;97.90
9043;DHT22;4556;49.150;8.808;2022-08-07T07:30:54;20.50;96.70
9043;DHT22;4556;49.150;8.808;2022-08-07T07:33:22;20.60;97.00
9043;DHT22;4556;49.150;8.808;2022-08-07T07:35:51;20.70;96.90
9043;DHT22;4556;49.150;8.808;2022-08-07T07:38:21;20.80;97.40
9043;DHT22;4556;49.150;8.808;2022-08-07T07:40:51;21.30;97.30
9043;DHT22;4556;49.150;8.808;2022-08-07T07:43:22;20.60;97.70
9043;DHT22;4556;49.150;8.808;2022-08-07T07:45:51;20.60;97.10
9043;DHT22;4556;49.150;8.808;2022-08-07T07:48:21;20.80;97.50
9043;DHT22;4556;49.150;8.808;2022-08-07T07:50:51;21.10;97.70
9043;DHT22;4556;49.150;8.808;2022-08-07T07:53:21;21.30;97.90
9043;DHT22;4556;49.150;8.808;2022-08-07T07:55:51;21.50;98.40
9043;DHT22;4556;49.150;8.808;2022-08-07T07:58:21;21.70;97.90
9043;DHT22;4556;49.150;8.808;2022-08-07T08:00:49;22.00;98.20
9043;DHT22;4556;49.150;8.808;2022-08-07T08:03:20;21.80;97.90
9043;DHT22;4556;49.150;8.808;2022-08-07T08:05:50;21.90;97.70
9043;DHT22;4556;49.150;8.808;2022-08-07T08:08:18;22.00;98.00
9043;DHT22;4556;49.150;8.808;2022-08-07T08:10:47;22.20;98.10
9043;DHT22;4556;49.150;8.808;2022-08-07T08:13:14;23.00;97.80
9043;DHT22;4556;49.150;8.808;2022-08-07T08:15:45;22.60;97.80
9043;DHT22;4556;49.150;8.808;2022-08-07T08:18:13;22.90;96.80
9043;DHT22;4556;49.150;8.808;2022-08-07T08:20:42;22.70;96.10
9043;DHT22;4556;49.150;8.808;2022-08-07T08:23:10;22.50;96.90
9043;DHT22;4556;49.150;8.808;2022-08-07T08:26:00;22.40;96.40
9043;DHT22;4556;49.150;8.808;2022-08-07T08:28:49;22.50;96.80
9043;DHT22;4556;49.150;8.808;2022-08-07T08:31:25;22.80;95.90
9043;DHT22;4556;49.150;8.808;2022-08-07T08:33:55;23.00;96.70
9043;DHT22;4556;49.150;8.808;2022-08-07T08:36:26;23.10;97.10
9043;DHT22;4556;49.150;8.808;2022-08-07T08:39:00;23.30;97.40
9043;DHT22;4556;49.150;8.808;2022-08-07T08:41:36;23.20;95.20
9043;DHT22;4556;49.150;8.808;2022-08-07T08:44:14;23.30;96.00
9043;DHT22;4556;49.150;8.808;2022-08-07T08:46:49;23.40;95.40
9043;DHT22;4556;49.150;8.808;2022-08-07T08:49:24;22.30;95.40
9043;DHT22;4556;49.150;8.808;2022-08-07T08:51:56;23.90;95.30
9043;DHT22;4556;49.150;8.808;2022-08-07T08:54:30;24.00;95.60
9043;DHT22;4556;49.150;8.808;2022-08-07T08:57:02;23.70;94.50
9043;DHT22;4556;49.150;8.808;2022-08-07T08:59:38;25.40;96.50
9043;DHT22;4556;49.150;8.808;2022-08-07T09:02:14;23.80;94.20
9043;DHT22;4556;49.150;8.808;2022-08-07T09:04:46;23.90;95.20
9043;DHT22;4556;49.150;8.808;2022-08-07T09:07:18;24.10;94.60
9043;DHT22;4556;49.150;8.808;2022-08-07T09:09:54;24.30;94.90
9043;DHT22;4556;49.150;8.808;2022-08-07T09:12:36;24.40;94.50
9043;DHT22;4556;49.150;8.808;2022-08-07T09:15:26;24.60;93.30
9043;DHT22;4556;49.150;8.808;2022-08-07T09:18:21;24.60;93.10
9043;DHT22;4556;49.150;8.808;2022-08-07T09:21:00;24.40;92.60
9043;DHT22;4556;49.150;8.808;2022-08-07T09:23:33;24.20;93.20
9043;DHT22;4556;49.150;8.808;2022-08-07T09:26:15;24.60;93.10
9043;DHT22;4556;49.150;8.808;2022-08-07T09:28:50;24.40;92.10
9043;DHT22;4556;49.150;8.808;2022-08-07T09:31:24;24.50;90.80
9043;DHT22;4556;49.150;8.808;2022-08-07T09:34:17;24.60;92.30
9043;DHT22;4556;49.150;8.808;2022-08-07T09:36:51;24.00;91.80
9043;DHT22;4556;49.150;8.808;2022-08-07T09:39:35;25.10;93.20
9043;DHT22;4556;49.150;8.808;2022-08-07T09:42:10;25.10;90.10
9043;DHT22;4556;49.150;8.808;2022-08-07T09:44:50;24.80;90.40
9043;DHT22;4556;49.150;8.808;2022-08-07T09:47:28;24.80;90.90
9043;DHT22;4556;49.150;8.808;2022-08-07T09:52:48;25.00;89.00
9043;DHT22;4556;49.150;8.808;2022-08-07T09:55:21;24.90;88.60
9043;DHT22;4556;49.150;8.808;2022-08-07T09:58:05;25.00;89.50
9043;DHT22;4556;49.150;8.808;2022-08-07T10:00:49;25.40;87.60
9043;DHT22;4556;49.150;8.808;2022-08-07T10:06:41;24.80;86.80
9043;DHT22;4556;49.150;8.808;2022-08-07T10:09:38;24.90;87.30
9043;DHT22;4556;49.150;8.808;2022-08-07T10:12:17;24.60;86.90
9043;DHT22;4556;49.150;8.808;2022-08-07T10:15:07;24.60;86.40
9043;DHT22;4556;49.150;8.808;2022-08-07T10:17:56;24.70;85.40
9043;DHT22;4556;49.150;8.808;2022-08-07T10:20:32;24.80;85.80
9043;DHT22;4556;49.150;8.808;2022-08-07T10:23:18;24.80;84.20
9043;DHT22;4556;49.150;8.808;2022-08-07T10:25:56;24.80;84.60
9043;DHT22;4556;49.150;8.808;2022-08-07T10:28:54;24.90;85.20
9043;DHT22;4556;49.150;8.808;2022-08-07T10:31:36;24.70;86.90
9043;DHT22;4556;49.150;8.808;2022-08-07T10:34:19;24.80;87.10
9043;DHT22;4556;49.150;8.808;2022-08-07T10:37:02;24.60;85.20
9043;DHT22;4556;49.150;8.808;2022-08-07T10:39:45;25.20;85.30
9043;DHT22;4556;49.150;8.808;2022-08-07T10:42:27;25.10;83.90
9043;DHT22;4556;49.150;8.808;2022-08-07T10:45:01;25.30;87.80
9043;DHT22;4556;49.150;8.808;2022-08-07T10:47:39;25.70;84.50
9043;DHT22;4556;49.150;8.808;2022-08-07T10:50:12;26.30;84.10
9043;DHT22;4556;49.150;8.808;2022-08-07T10:52:50;25.30;83.10
9043;DHT22;4556;49.150;8.808;2022-08-07T10:55:22;25.40;83.20
9043;DHT22;4556;49.150;8.808;2022-08-07T10:58:01;25.40;84.50
9043;DHT22;4556;49.150;8.808;2022-08-07T11:00:35;25.40;83.70
9043;DHT22;4556;49.150;8.808;2022-08-07T11:03:06;25.70;86.20
9043;DHT22;4556;49.150;8.808;2022-08-07T11:05:44;25.50;87.60
9043;DHT22;4556;49.150;8.808;2022-08-07T11:08:24;25.80;86.50
9043;DHT22;4556;49.150;8.808;2022-08-07T11:10:58;25.80;86.10
9043;DHT22;4556;49.150;8.808;2022-08-07T11:13:31;25.80;84.60
9043;DHT22;4556;49.150;8.808;2022-08-07T11:16:05;25.90;82.40
9043;DHT22;4556;49.150;8.808;2022-08-07T11:18:38;25.50;82.40
9043;DHT22;4556;49.150;8.808;2022-08-07T11:21:13;25.50;85.80
9043;DHT22;4556;49.150;8.808;2022-08-07T11:23:53;25.60;84.60
9043;DHT22;4556;49.150;8.808;2022-08-07T11:26:33;25.90;87.00
9043;DHT22;4556;49.150;8.808;2022-08-07T11:29:05;26.20;82.80
9043;DHT22;4556;49.150;8.808;2022-08-07T11:31:37;26.10;82.30
9043;DHT22;4556;49.150;8.808;2022-08-07T11:34:15;26.00;83.40
9043;DHT22;4556;49.150;8.808;2022-08-07T11:36:56;26.10;83.70
9043;DHT22;4556;49.150;8.808;2022-08-07T11:39:46;26.00;80.00
9043;DHT22;4556;49.150;8.808;2022-08-07T11:42:22;26.00;82.80
9043;DHT22;4556;49.150;8.808;2022-08-07T11:44:55;26.10;81.20
9043;DHT22;4556;49.150;8.808;2022-08-07T11:47:42;26.20;82.20
9043;DHT22;4556;49.150;8.808;2022-08-07T11:50:23;26.00;79.80
9043;DHT22;4556;49.150;8.808;2022-08-07T11:53:03;25.80;83.00
9043;DHT22;4556;49.150;8.808;2022-08-07T11:55:51;25.80;80.50
9043;DHT22;4556;49.150;8.808;2022-08-07T11:58:43;25.80;82.80
9043;DHT22;4556;49.150;8.808;2022-08-07T12:01:37;26.10;79.40
9043;DHT22;4556;49.150;8.808;2022-08-07T12:04:23;26.20;80.00
9043;DHT22;4556;49.150;8.808;2022-08-07T12:06:55;26.10;80.20
9043;DHT22;4556;49.150;8.808;2022-08-07T12:09:31;26.30;79.90
9043;DHT22;4556;49.150;8.808;2022-08-07T12:12:04;26.20;79.10
9043;DHT22;4556;49.150;8.808;2022-08-07T12:14:41;26.40;77.60
9043;DHT22;4556;49.150;8.808;2022-08-07T12:17:11;26.40;77.60
9043;DHT22;4556;49.150;8.808;2022-08-07T12:19:44;26.30;77.90
9043;DHT22;4556;49.150;8.808;2022-08-07T12:22:19;26.30;78.30
9043;DHT22;4556;49.150;8.808;2022-08-07T12:24:52;26.40;81.00
9043;DHT22;4556;49.150;8.808;2022-08-07T12:27:45;26.80;79.00
9043;DHT22;4556;49.150;8.808;2022-08-07T12:30:16;26.50;80.10
9043;DHT22;4556;49.150;8.808;2022-08-07T12:32:51;26.30;79.10
9043;DHT22;4556;49.150;8.808;2022-08-07T12:35:22;26.50;77.80
9043;DHT22;4556;49.150;8.808;2022-08-07T12:37:51;26.50;76.40
9043;DHT22;4556;49.150;8.808;2022-08-07T12:40:21;26.40;76.10
9043;DHT22;4556;49.150;8.808;2022-08-07T12:42:51;26.40;77.40
9043;DHT22;4556;49.150;8.808;2022-08-07T12:45:25;26.60;77.20
9043;DHT22;4556;49.150;8.808;2022-08-07T12:47:58;26.70;78.00
9043;DHT22;4556;49.150;8.808;2022-08-07T12:50:31;26.70;75.10
9043;DHT22;4556;49.150;8.808;2022-08-07T12:53:03;26.60;76.70
9043;DHT22;4556;49.150;8.808;2022-08-07T12:55:36;26.70;76.90
9043;DHT22;4556;49.150;8.808;2022-08-07T12:58:07;26.50;76.70
9043;DHT22;4556;49.150;8.808;2022-08-07T13:00:46;26.50;76.20
9043;DHT22;4556;49.150;8.808;2022-08-07T13:03:35;26.60;75.90
9043;DHT22;4556;49.150;8.808;2022-08-07T13:06:25;26.70;73.90
9043;DHT22;4556;49.150;8.808;2022-08-07T13:09:00;26.50;75.50
9043;DHT22;4556;49.150;8.808;2022-08-07T13:11:49;26.50;76.20
9043;DHT22;4556;49.150;8.808;2022-08-07T13:14:30;26.50;77.70
9043;DHT22;4556;49.150;8.808;2022-08-07T13:17:11;24.20;75.40
9043;DHT22;4556;49.150;8.808;2022-08-07T13:19:46;26.70;74.30
9043;DHT22;4556;49.150;8.808;2022-08-07T13:22:20;26.90;75.30
9043;DHT22;4556;49.150;8.808;2022-08-07T13:24:59;26.20;76.50
9043;DHT22;4556;49.150;8.808;2022-08-07T13:27:32;26.60;77.50
9043;DHT22;4556;49.150;8.808;2022-08-07T13:30:04;26.90;76.30
9043;DHT22;4556;49.150;8.808;2022-08-07T13:32:38;26.70;77.60
9043;DHT22;4556;49.150;8.808;2022-08-07T13:35:11;26.70;73.80
9043;DHT22;4556;49.150;8.808;2022-08-07T13:37:48;26.70;74.60
9043;DHT22;4556;49.150;8.808;2022-08-07T13:40:24;26.70;77.40
9043;DHT22;4556;49.150;8.808;2022-08-07T13:42:55;26.70;76.60
9043;DHT22;4556;49.150;8.808;2022-08-07T13:45:25;26.80;75.70
9043;DHT22;4556;49.150;8.808;2022-08-07T13:47:56;26.70;77.70
9043;DHT22;4556;49.150;8.808;2022-08-07T13:50:25;26.70;76.10
9043;DHT22;4556;49.150;8.808;2022-08-07T13:52:55;26.70;76.70
9043;DHT22;4556;49.150;8.808;2022-08-07T13:55:25;26.70;76.30
9043;DHT22;4556;49.150;8.808;2022-08-07T13:58:03;26.80;74.80
9043;DHT22;4556;49.150;8.808;2022-08-07T14:00:52;27.00;75.80
9043;DHT22;4556;49.150;8.808;2022-08-07T14:03:24;27.20;72.60
9043;DHT22;4556;49.150;8.808;2022-08-07T14:05:53;27.00;72.50
9043;DHT22;4556;49.150;8.808;2022-08-07T14:08:23;26.70;73.20
9043;DHT22;4556;49.150;8.808;2022-08-07T14:10:51;26.70;73.00
9043;DHT22;4556;49.150;8.808;2022-08-07T14:13:26;26.70;72.20
9043;DHT22;4556;49.150;8.808;2022-08-07T14:16:01;26.70;73.00
9043;DHT22;4556;49.150;8.808;2022-08-07T14:18:31;26.70;73.60
9043;DHT22;4556;49.150;8.808;2022-08-07T14:21:07;26.60;72.40
9043;DHT22;4556;49.150;8.808;2022-08-07T14:23:36;26.60;73.50
9043;DHT22;4556;49.150;8.808;2022-08-07T14:26:10;26.60;74.70
9043;DHT22;4556;49.150;8.808;2022-08-07T14:28:40;26.70;74.00
9043;DHT22;4556;49.150;8.808;2022-08-07T14:31:10;26.70;75.30
9043;DHT22;4556;49.150;8.808;2022-08-07T14:33:39;26.70;74.10
9043;DHT22;4556;49.150;8.808;2022-08-07T14:36:08;26.70;72.70
9043;DHT22;4556;49.150;8.808;2022-08-07T14:38:36;26.70;73.00
9043;DHT22;4556;49.150;8.808;2022-08-07T14:41:09;26.80;74.40
9043;DHT22;4556;49.150;8.808;2022-08-07T14:43:40;26.80;72.10
9043;DHT22;4556;49.150;8.808;2022-08-07T14:46:09;26.70;73.00
9043;DHT22;4556;49.150;8.808;2022-08-07T14:48:40;26.90;73.00
9043;DHT22;4556;49.150;8.808;2022-08-07T14:51:10;26.70;73.40
9043;DHT22;4556;49.150;8.808;2022-08-07T14:53:40;26.60;69.90
9043;DHT22;4556;49.150;8.808;2022-08-07T14:56:12;24.30;69.30
9043;DHT22;4556;49.150;8.808;2022-08-07T14:58:44;26.60;72.60
9043;DHT22;4556;49.150;8.808;2022-08-07T15:01:15;26.60;72.50
9043;DHT22;4556;49.150;8.808;2022-08-07T15:03:44;26.50;71.90
9043;DHT22;4556;49.150;8.808;2022-08-07T15:06:13;26.60;72.90
9043;DHT22;4556;49.150;8.808;2022-08-07T15:08:42;26.50;75.20
9043;DHT22;4556;49.150;8.808;2022-08-07T15:11:13;26.50;72.20
9043;DHT22;4556;49.150;8.808;2022-08-07T15:13:55;26.50;74.30
9043;DHT22;4556;49.150;8.808;2022-08-07T15:16:26;26.50;73.50
9043;DHT22;4556;49.150;8.808;2022-08-07T15:18:58;26.30;75.00
9043;DHT22;4556;49.150;8.808;2022-08-07T15:21:29;26.30;72.10
9043;DHT22;4556;49.150;8.808;2022-08-07T15:24:00;26.30;73.20
9043;DHT22;4556;49.150;8.808;2022-08-07T15:26:35;26.50;73.40
9043;DHT22;4556;49.150;8.808;2022-08-07T15:29:05;26.60;73.80
9043;DHT22;4556;49.150;8.808;2022-08-07T15:31:35;26.60;73.10
9043;DHT22;4556;49.150;8.808;2022-08-07T15:34:04;26.50;71.40
9043;DHT22;4556;49.150;8.808;2022-08-07T15:36:33;26.50;72.90
9043;DHT22;4556;49.150;8.808;2022-08-07T15:39:03;26.50;71.40
9043;DHT22;4556;49.150;8.808;2022-08-07T15:41:31;26.50;72.90
9043;DHT22;4556;49.150;8.808;2022-08-07T15:44:06;26.40;77.10
9043;DHT22;4556;49.150;8.808;2022-08-07T15:46:37;26.50;72.10
9043;DHT22;4556;49.150;8.808;2022-08-07T15:49:09;26.50;74.40
9043;DHT22;4556;49.150;8.808;2022-08-07T15:51:40;26.50;75.00
9043;DHT22;4556;49.150;8.808;2022-08-07T15:54:09;26.70;74.60
9043;DHT22;4556;49.150;8.808;2022-08-07T15:56:37;26.70;73.10
9043;DHT22;4556;49.150;8.808;2022-08-07T15:59:09;26.50;72.20
9043;DHT22;4556;49.150;8.808;2022-08-07T16:01:39;26.50;73.10
9043;DHT22;4556;49.150;8.808;2022-08-07T16:04:12;26.50;71.60
9043;DHT22;4556;49.150;8.808;2022-08-07T16:06:47;26.40;72.70
9043;DHT22;4556;49.150;8.808;2022-08-07T16:09:20;26.50;73.50
9043;DHT22;4556;49.150;8.808;2022-08-07T16:12:05;26.50;73.20
9043;DHT22;4556;49.150;8.808;2022-08-07T16:14:56;26.50;70.10
9043;DHT22;4556;49.150;8.808;2022-08-07T16:17:34;26.40;70.90
9043;DHT22;4556;49.150;8.808;2022-08-07T16:20:35;26.40;71.80
9043;DHT22;4556;49.150;8.808;2022-08-07T16:23:29;26.40;71.20
9043;DHT22;4556;49.150;8.808;2022-08-07T16:26:06;26.30;70.70
9043;DHT22;4556;49.150;8.808;2022-08-07T16:28:51;26.20;71.00
9043;DHT22;4556;49.150;8.808;2022-08-07T16:31:27;26.20;70.90
9043;DHT22;4556;49.150;8.808;2022-08-07T16:34:03;26.20;70.60
9043;DHT22;4556;49.150;8.808;2022-08-07T16:36:44;26.20;72.80
9043;DHT22;4556;49.150;8.808;2022-08-07T16:39:27;26.20;71.10
9043;DHT22;4556;49.150;8.808;2022-08-07T16:42:16;26.20;71.30
9043;DHT22;4556;49.150;8.808;2022-08-07T16:45:06;26.20;70.80